sensor_id;sensor_type;location;lat;lon;timestamp;pressure;altitude;pressure_sealevel;temperature;humidity
51928;BME280;37953;52.806;18.270;2022-12-13T00:00:59;99778.94;;;1.08;100.00
51928;BME280;37953;52.806;18.270;2022-12-13T00:03:25;99769.63;;;1.08;100.00
51928;BME280;37953;52.806;18.270;2022-12-13T00:05:51;99765.25;;;1.06;100.00
51928;BME280;37953;52.806;18.270;2022-12-13T00:08:23;99775.53;;;1.07;100.00
51928;BME280;37953;52.806;18.270;2022-12-13T00:11:03;99775.53;;;1.07;100.00
51928;BME280;37953;52.806;18.270;2022-12-13T00:13:29;99774.56;;;1.04;100.00
51928;BME280;37953;52.806;18.270;2022-12-13T00:16:01;99777.09;;;1.02;100.00
51928;BME280;37953;52.806;18.270;2022-12-13T00:18:27;99772.72;;;0.99;100.00
51928;BME280;37953;52.806;18.270;2022-12-13T00:21:04;99766.75;;;0.99;100.00
51928;BME280;37953;52.806;18.270;2022-12-13T00:23:30;99774.41;;;0.97;100.00
51928;BME280;37953;52.806;18.270;2022-12-13T00:26:08;99778.56;;;0.94;100.00
51928;BME280;37953;52.806;18.270;2022-12-13T00:28:35;99786.28;;;0.95;100.00
51928;BME280;37953;52.806;18.270;2022-12-13T00:31:01;99785.38;;;0.93;100.00
51928;BME280;37953;52.806;18.270;2022-12-13T00:33:28;99789.50;;;0.90;100.00
51928;BME280;37953;52.806;18.270;2022-12-13T00:35:54;99782.44;;;0.82;100.00
51928;BME280;37953;52.806;18.270;2022-12-13T00:38:21;99786.72;;;0.82;100.00
51928;BME280;37953;52.806;18.270;2022-12-13T00:40:53;99787.63;;;0.84;100.00
51928;BME280;37953;52.806;18.270;2022-12-13T00:43:19;99789.38;;;0.85;100.00
51928;BME280;37953;52.806;18.270;2022-12-13T00:45:45;99801.25;;;0.85;100.00
51928;BME280;37953;52.806;18.270;2022-12-13T00:48:11;99817.44;;;0.84;100.00
51928;BME280;37953;52.806;18.270;2022-12-13T00:50:37;99807.16;;;0.82;100.00
51928;BME280;37953;52.806;18.270;2022-12-13T00:53:03;99815.56;;;0.78;100.00
51928;BME280;37953;52.806;18.270;2022-12-13T00:55:29;99806.16;;;0.77;100.00
51928;BME280;37953;52.806;18.270;2022-12-13T00:57:55;99817.19;;;0.76;100.00
51928;BME280;37953;52.806;18.270;2022-12-13T01:00:22;99808.59;;;0.74;100.00
51928;BME280;37953;52.806;18.270;2022-12-13T01:02:51;99808.59;;;0.74;100.00
51928;BME280;37953;52.806;18.270;2022-12-13T01:05:18;99814.50;;;0.71;100.00
51928;BME280;37953;52.806;18.270;2022-12-13T01:07:44;99813.53;;;0.68;100.00
51928;BME280;37953;52.806;18.270;2022-12-13T01:10:11;99808.47;;;0.69;100.00
51928;BME280;37953;52.806;18.270;2022-12-13T01:12:38;99825.44;;;0.67;100.00
51928;BME280;37953;52.806;18.270;2022-12-13T01:15:05;99810.06;;;0.66;100.00
51928;BME280;37953;52.806;18.270;2022-12-13T01:17:38;99809.25;;;0.67;100.00
51928;BME280;37953;52.806;18.270;2022-12-13T01:20:04;99810.94;;;0.66;100.00
51928;BME280;37953;52.806;18.270;2022-12-13T01:22:30;99803.16;;;0.63;100.00
51928;BME280;37953;52.806;18.270;2022-12-13T01:24:56;99819.41;;;0.65;100.00
51928;BME280;37953;52.806;18.270;2022-12-13T01:27:22;99815.13;;;0.64;100.00
51928;BME280;37953;52.806;18.270;2022-12-13T01:29:48;99823.56;;;0.62;100.00
51928;BME280;37953;52.806;18.270;2022-12-13T01:32:14;99814.16;;;0.60;100.00
51928;BME280;37953;52.806;18.270;2022-12-13T01:34:40;99812.44;;;0.59;100.00
51928;BME280;37953;52.806;18.270;2022-12-13T01:37:06;99803.00;;;0.58;100.00
51928;BME280;37953;52.806;18.270;2022-12-13T01:39:32;99811.59;;;0.60;100.00
51928;BME280;37953;52.806;18.270;2022-12-13T01:41:58;99813.25;;;0.58;100.00
51928;BME280;37953;52.806;18.270;2022-12-13T01:44:58;99820.84;;;0.57;100.00
51928;BME280;37953;52.806;18.270;2022-12-13T01:47:45;99819.91;;;0.53;100.00
51928;BME280;37953;52.806;18.270;2022-12-13T01:50:24;99825.66;;;0.48;100.00
51928;BME280;37953;52.806;18.270;2022-12-13T01:52:57;99819.78;;;0.50;100.00
51928;BME280;37953;52.806;18.270;2022-12-13T01:55:27;99829.09;;;0.48;100.00
51928;BME280;37953;52.806;18.270;2022-12-13T01:58:00;99829.97;;;0.49;100.00
51928;BME280;37953;52.806;18.270;2022-12-13T02:00:27;99826.44;;;0.45;100.00
51928;BME280;37953;52.806;18.270;2022-12-13T02:02:55;99825.59;;;0.46;100.00
51928;BME280;37953;52.806;18.270;2022-12-13T02:05:32;99829.97;;;0.49;100.00
51928;BME280;37953;52.806;18.270;2022-12-13T02:08:00;99835.97;;;0.51;100.00
51928;BME280;37953;52.806;18.270;2022-12-13T02:10:28;99832.63;;;0.52;100.00
51928;BME280;37953;52.806;18.270;2022-12-13T02:12:54;99831.75;;;0.51;100.00
51928;BME280;37953;52.806;18.270;2022-12-13T02:15:20;99824.91;;;0.50;100.00
51928;BME280;37953;52.806;18.270;2022-12-13T02:35:07;99832.22;;;0.39;100.00
51928;BME280;37953;52.806;18.270;2022-12-13T02:40:15;99834.53;;;0.32;100.00
51928;BME280;37953;52.806;18.270;2022-12-13T02:45:43;99844.75;;;0.32;100.00
51928;BME280;37953;52.806;18.270;2022-12-13T02:48:28;99851.50;;;0.31;100.00
51928;BME280;37953;52.806;18.270;2022-12-13T02:50:57;99841.97;;;0.26;100.00
51928;BME280;37953;52.806;18.270;2022-12-13T02:53:24;99846.41;;;0.31;100.00
51928;BME280;37953;52.806;18.270;2022-12-13T02:55:51;99851.44;;;0.28;100.00
51928;BME280;37953;52.806;18.270;2022-12-13T02:58:22;99850.59;;;0.29;100.00
51928;BME280;37953;52.806;18.270;2022-12-13T03:03:47;99862.56;;;0.30;100.00
51928;BME280;37953;52.806;18.270;2022-12-13T03:06:49;99865.13;;;0.30;100.00
51928;BME280;37953;52.806;18.270;2022-12-13T03:12:27;99862.63;;;0.32;100.00
51928;BME280;37953;52.806;18.270;2022-12-13T03:18:06;99852.44;;;0.33;100.00
51928;BME280;37953;52.806;18.270;2022-12-13T03:20:51;99852.44;;;0.33;100.00
51928;BME280;37953;52.806;18.270;2022-12-13T03:23:19;99839.66;;;0.33;100.00
51928;BME280;37953;52.806;18.270;2022-12-13T03:25:55;99839.66;;;0.33;100.00
51928;BME280;37953;52.806;18.270;2022-12-13T03:28:21;99845.59;;;0.32;100.00
51928;BME280;37953;52.806;18.270;2022-12-13T03:30:47;99847.25;;;0.30;100.00
51928;BME280;37953;52.806;18.270;2022-12-13T03:33:19;99845.47;;;0.29;100.00
51928;BME280;37953;52.806;18.270;2022-12-13T03:35:47;99841.28;;;0.30;100.00
51928;BME280;37953;52.806;18.270;2022-12-13T03:38:15;99844.63;;;0.29;100.00
51928;BME280;37953;52.806;18.270;2022-12-13T03:40:41;99840.16;;;0.23;100.00
51928;BME280;37953;52.806;18.270;2022-12-13T03:43:10;99849.59;;;0.24;100.00
51928;BME280;37953;52.806;18.270;2022-12-13T03:45:36;99848.66;;;0.22;100.00
51928;BME280;37953;52.806;18.270;2022-12-13T03:48:02;99850.38;;;0.23;100.00
51928;BME280;37953;52.806;18.270;2022-12-13T03:50:28;99859.75;;;0.23;100.00
51928;BME280;37953;52.806;18.270;2022-12-13T03:53:01;99857.19;;;0.23;100.00
51928;BME280;37953;52.806;18.270;2022-12-13T03:55:28;99860.50;;;0.20;100.00
51928;BME280;37953;52.806;18.270;2022-12-13T03:57:54;99856.19;;;0.19;100.00
51928;BME280;37953;52.806;18.270;2022-12-13T04:00:21;99851.94;;;0.18;100.00
51928;BME280;37953;52.806;18.270;2022-12-13T04:02:47;99859.53;;;0.16;100.00
51928;BME280;37953;52.806;18.270;2022-12-13T04:05:13;99856.03;;;0.14;100.00
51928;BME280;37953;52.806;18.270;2022-12-13T04:07:39;99856.81;;;0.12;100.00
51928;BME280;37953;52.806;18.270;2022-12-13T04:10:06;99859.28;;;0.09;100.00
51928;BME280;37953;52.806;18.270;2022-12-13T04:12:32;99857.47;;;0.06;100.00
51928;BME280;37953;52.806;18.270;2022-12-13T04:15:16;99867.66;;;0.05;100.00
51928;BME280;37953;52.806;18.270;2022-12-13T04:17:42;99872.59;;;0.00;100.00
51928;BME280;37953;52.806;18.270;2022-12-13T04:20:09;99867.44;;;-0.02;100.00
51928;BME280;37953;52.806;18.270;2022-12-13T04:22:35;99867.44;;;-0.02;100.00
51928;BME280;37953;52.806;18.270;2022-12-13T04:25:01;99872.41;;;-0.05;100.00
51928;BME280;37953;52.806;18.270;2022-12-13T04:27:28;99872.31;;;-0.08;100.00
51928;BME280;37953;52.806;18.270;2022-12-13T04:29:54;99877.34;;;-0.09;100.00
51928;BME280;37953;52.806;18.270;2022-12-13T04:32:19;99870.47;;;-0.12;100.00
51928;BME280;37953;52.806;18.270;2022-12-13T04:34:45;99872.16;;;-0.12;100.00
51928;BME280;37953;52.806;18.270;2022-12-13T04:37:11;99864.44;;;-0.14;100.00
51928;BME280;37953;52.806;18.270;2022-12-13T04:39:37;99876.38;;;-0.13;100.00
51928;BME280;37953;52.806;18.270;2022-12-13T04:42:03;99874.63;;;-0.14;100.00
51928;BME280;37953;52.806;18.270;2022-12-13T04:44:30;99866.97;;;-0.14;100.00
51928;BME280;37953;52.806;18.270;2022-12-13T04:46:56;99875.44;;;-0.15;100.00
51928;BME280;37953;52.806;18.270;2022-12-13T04:49:22;99879.69;;;-0.15;100.00
51928;BME280;37953;52.806;18.270;2022-12-13T04:51:48;99881.38;;;-0.16;100.00
51928;BME280;37953;52.806;18.270;2022-12-13T04:54:14;99873.66;;;-0.17;100.00
51928;BME280;37953;52.806;18.270;2022-12-13T04:56:40;99871.09;;;-0.17;100.00
51928;BME280;37953;52.806;18.270;2022-12-13T04:59:06;99868.50;;;-0.19;100.00
51928;BME280;37953;52.806;18.270;2022-12-13T05:01:33;99876.19;;;-0.19;100.00
51928;BME280;37953;52.806;18.270;2022-12-13T05:04:01;99871.94;;;-0.18;100.00
51928;BME280;37953;52.806;18.270;2022-12-13T05:06:30;99879.66;;;-0.17;100.00
51928;BME280;37953;52.806;18.270;2022-12-13T05:08:56;99872.00;;;-0.17;100.00
51928;BME280;37953;52.806;18.270;2022-12-13T05:11:22;99875.41;;;-0.16;100.00
51928;BME280;37953;52.806;18.270;2022-12-13T05:13:48;99872.88;;;-0.15;100.00
51928;BME280;37953;52.806;18.270;2022-12-13T05:16:14;99869.53;;;-0.14;100.00
51928;BME280;37953;52.806;18.270;2022-12-13T05:18:41;99871.25;;;-0.13;100.00
51928;BME280;37953;52.806;18.270;2022-12-13T05:21:09;99869.59;;;-0.12;100.00
51928;BME280;37953;52.806;18.270;2022-12-13T05:23:36;99866.13;;;-0.14;100.00
51928;BME280;37953;52.806;18.270;2022-12-13T05:26:03;99865.28;;;-0.13;100.00
51928;BME280;37953;52.806;18.270;2022-12-13T05:28:29;99888.28;;;-0.13;100.00
51928;BME280;37953;52.806;18.270;2022-12-13T05:30:58;99873.88;;;-0.11;100.00
51928;BME280;37953;52.806;18.270;2022-12-13T05:33:25;99883.31;;;-0.09;100.00
51928;BME280;37953;52.806;18.270;2022-12-13T05:35:51;99879.13;;;-0.07;100.00
51928;BME280;37953;52.806;18.270;2022-12-13T05:38:17;99891.97;;;-0.05;100.00
51928;BME280;37953;52.806;18.270;2022-12-13T05:40:43;99878.41;;;-0.04;100.00
51928;BME280;37953;52.806;18.270;2022-12-13T05:43:12;99891.28;;;-0.01;100.00
51928;BME280;37953;52.806;18.270;2022-12-13T05:45:38;99881.97;;;0.01;100.00
51928;BME280;37953;52.806;18.270;2022-12-13T05:48:05;99882.81;;;0.00;100.00
51928;BME280;37953;52.806;18.270;2022-12-13T05:50:31;99888.88;;;0.04;100.00
51928;BME280;37953;52.806;18.270;2022-12-13T05:52:57;99885.47;;;0.03;100.00
51928;BME280;37953;52.806;18.270;2022-12-13T05:55:23;99883.66;;;0.01;100.00
51928;BME280;37953;52.806;18.270;2022-12-13T05:57:49;99885.41;;;0.02;100.00
51928;BME280;37953;52.806;18.270;2022-12-13T06:00:15;99874.97;;;-0.05;100.00
51928;BME280;37953;52.806;18.270;2022-12-13T06:02:42;99874.25;;;-0.01;100.00
51928;BME280;37953;52.806;18.270;2022-12-13T06:05:10;99886.09;;;-0.03;100.00
51928;BME280;37953;52.806;18.270;2022-12-13T06:07:36;99883.50;;;-0.04;100.00
51928;BME280;37953;52.806;18.270;2022-12-13T06:10:04;99872.25;;;-0.09;100.00
51928;BME280;37953;52.806;18.270;2022-12-13T06:12:32;99890.19;;;-0.08;100.00
51928;BME280;37953;52.806;18.270;2022-12-13T06:14:59;99878.22;;;-0.09;100.00
51928;BME280;37953;52.806;18.270;2022-12-13T06:17:24;99888.44;;;-0.09;100.00
51928;BME280;37953;52.806;18.270;2022-12-13T06:19:50;99887.50;;;-0.11;100.00
51928;BME280;37953;52.806;18.270;2022-12-13T06:22:17;99892.59;;;-0.11;100.00
51928;BME280;37953;52.806;18.270;2022-12-13T06:24:43;99890.88;;;-0.12;100.00
51928;BME280;37953;52.806;18.270;2022-12-13T06:27:09;99895.13;;;-0.12;100.00
51928;BME280;37953;52.806;18.270;2022-12-13T06:29:35;99896.84;;;-0.11;100.00
51928;BME280;37953;52.806;18.270;2022-12-13T06:32:03;99906.13;;;-0.13;100.00
51928;BME280;37953;52.806;18.270;2022-12-13T06:34:35;99901.91;;;-0.13;100.00
51928;BME280;37953;52.806;18.270;2022-12-13T06:37:11;99905.38;;;-0.11;100.00
51928;BME280;37953;52.806;18.270;2022-12-13T06:39:38;99914.72;;;-0.11;100.00
51928;BME280;37953;52.806;18.270;2022-12-13T06:42:05;99916.41;;;-0.12;100.00
51928;BME280;37953;52.806;18.270;2022-12-13T06:44:40;99921.47;;;-0.13;100.00
51928;BME280;37953;52.806;18.270;2022-12-13T06:47:06;99926.56;;;-0.13;100.00
51928;BME280;37953;52.806;18.270;2022-12-13T06:49:33;99928.25;;;-0.14;100.00
51928;BME280;37953;52.806;18.270;2022-12-13T06:51:59;99924.78;;;-0.16;100.00
51928;BME280;37953;52.806;18.270;2022-12-13T06:54:25;99930.72;;;-0.17;100.00
51928;BME280;37953;52.806;18.270;2022-12-13T06:56:51;99936.69;;;-0.16;100.00
51928;BME280;37953;52.806;18.270;2022-12-13T06:59:17;99934.16;;;-0.15;100.00
51928;BME280;37953;52.806;18.270;2022-12-13T07:01:43;99932.50;;;-0.14;100.00
51928;BME280;37953;52.806;18.270;2022-12-13T07:04:10;99940.16;;;-0.14;100.00
51928;BME280;37953;52.806;18.270;2022-12-13T07:06:37;99941.88;;;-0.13;100.00
51928;BME280;37953;52.806;18.270;2022-12-13T07:09:03;99938.53;;;-0.12;100.00
51928;BME280;37953;52.806;18.270;2022-12-13T07:11:31;99935.09;;;-0.13;100.00
51928;BME280;37953;52.806;18.270;2022-12-13T07:13:58;99940.19;;;-0.13;100.00
51928;BME280;37953;52.806;18.270;2022-12-13T07:16:26;99947.06;;;-0.12;100.00
51928;BME280;37953;52.806;18.270;2022-12-13T07:19:00;99945.28;;;-0.13;100.00
51928;BME280;37953;52.806;18.270;2022-12-13T07:21:27;99940.09;;;-0.16;100.00
51928;BME280;37953;52.806;18.270;2022-12-13T07:23:53;99945.19;;;-0.16;100.00
51928;BME280;37953;52.806;18.270;2022-12-13T07:26:19;99951.13;;;-0.17;100.00
51928;BME280;37953;52.806;18.270;2022-12-13T07:28:46;99951.94;;;-0.18;100.00
51928;BME280;37953;52.806;18.270;2022-12-13T07:31:18;99958.78;;;-0.17;100.00
51928;BME280;37953;52.806;18.270;2022-12-13T07:33:44;99951.06;;;-0.18;100.00
51928;BME280;37953;52.806;18.270;2022-12-13T07:36:15;99956.25;;;-0.17;100.00
51928;BME280;37953;52.806;18.270;2022-12-13T07:38:50;99957.84;;;-0.19;100.00
51928;BME280;37953;52.806;18.270;2022-12-13T07:41:17;99964.59;;;-0.21;100.00
51928;BME280;37953;52.806;18.270;2022-12-13T07:43:43;99956.94;;;-0.21;100.00
51928;BME280;37953;52.806;18.270;2022-12-13T07:46:09;99964.63;;;-0.19;100.00
51928;BME280;37953;52.806;18.270;2022-12-13T07:48:36;99969.72;;;-0.19;100.00
51928;BME280;37953;52.806;18.270;2022-12-13T07:51:05;99968.94;;;-0.18;100.00
51928;BME280;37953;52.806;18.270;2022-12-13T07:53:39;99961.28;;;-0.18;100.00
51928;BME280;37953;52.806;18.270;2022-12-13T07:56:08;99957.84;;;-0.19;100.00
51928;BME280;37953;52.806;18.270;2022-12-13T07:58:41;99967.19;;;-0.19;100.00
51928;BME280;37953;52.806;18.270;2022-12-13T08:01:08;99963.75;;;-0.20;100.00
51928;BME280;37953;52.806;18.270;2022-12-13T08:03:35;99974.03;;;-0.18;100.00
51928;BME280;37953;52.806;18.270;2022-12-13T08:06:09;99972.41;;;-0.16;100.00
51928;BME280;37953;52.806;18.270;2022-12-13T08:08:36;99987.72;;;-0.16;100.00
51928;BME280;37953;52.806;18.270;2022-12-13T08:11:08;99983.41;;;-0.17;100.00
51928;BME280;37953;52.806;18.270;2022-12-13T08:13:35;99984.34;;;-0.15;100.00
51928;BME280;37953;52.806;18.270;2022-12-13T08:16:03;99989.47;;;-0.15;100.00
51928;BME280;37953;52.806;18.270;2022-12-13T08:18:31;99986.97;;;-0.14;100.00
51928;BME280;37953;52.806;18.270;2022-12-13T08:21:06;99988.66;;;-0.14;100.00
51928;BME280;37953;52.806;18.270;2022-12-13T08:23:34;99989.53;;;-0.14;100.00
51928;BME280;37953;52.806;18.270;2022-12-13T08:26:02;99987.84;;;-0.13;100.00
51928;BME280;37953;52.806;18.270;2022-12-13T08:28:30;99983.56;;;-0.14;100.00
51928;BME280;37953;52.806;18.270;2022-12-13T08:31:05;99987.91;;;-0.12;100.00
51928;BME280;37953;52.806;18.270;2022-12-13T08:33:46;99987.31;;;-0.05;100.00
51928;BME280;37953;52.806;18.270;2022-12-13T08:36:15;99987.19;;;-0.08;100.00
51928;BME280;37953;52.806;18.270;2022-12-13T08:38:43;99991.44;;;-0.08;100.00
51928;BME280;37953;52.806;18.270;2022-12-13T08:41:10;99989.69;;;-0.09;100.00
51928;BME280;37953;52.806;18.270;2022-12-13T08:43:37;99990.63;;;-0.07;100.00
51928;BME280;37953;52.806;18.270;2022-12-13T08:46:03;99991.44;;;-0.08;100.00
51928;BME280;37953;52.806;18.270;2022-12-13T08:48:30;99991.47;;;-0.07;100.00
51928;BME280;37953;52.806;18.270;2022-12-13T08:51:00;99986.38;;;-0.07;100.00
51928;BME280;37953;52.806;18.270;2022-12-13T08:53:32;99987.06;;;-0.11;100.00
51928;BME280;37953;52.806;18.270;2022-12-13T08:56:02;99994.94;;;-0.06;100.00
51928;BME280;37953;52.806;18.270;2022-12-13T08:58:36;100005.16;;;-0.06;100.00
51928;BME280;37953;52.806;18.270;2022-12-13T09:01:09;99994.03;;;-0.07;100.00
51928;BME280;37953;52.806;18.270;2022-12-13T09:03:41;99986.44;;;-0.05;100.00
51928;BME280;37953;52.806;18.270;2022-12-13T09:06:09;99993.25;;;-0.06;100.00
51928;BME280;37953;52.806;18.270;2022-12-13T09:08:36;99990.69;;;-0.06;100.00
51928;BME280;37953;52.806;18.270;2022-12-13T09:11:10;100000.06;;;-0.05;100.00
51928;BME280;37953;52.806;18.270;2022-12-13T09:13:37;100007.69;;;-0.06;100.00
51928;BME280;37953;52.806;18.270;2022-12-13T09:16:08;100007.69;;;-0.06;100.00
51928;BME280;37953;52.806;18.270;2022-12-13T09:18:36;100006.00;;;-0.06;100.00
51928;BME280;37953;52.806;18.270;2022-12-13T09:21:09;100011.19;;;-0.04;100.00
51928;BME280;37953;52.806;18.270;2022-12-13T09:23:36;100013.72;;;-0.04;100.00
51928;BME280;37953;52.806;18.270;2022-12-13T09:26:02;100023.13;;;-0.03;100.00
51928;BME280;37953;52.806;18.270;2022-12-13T09:28:29;100008.66;;;-0.03;100.00
51928;BME280;37953;52.806;18.270;2022-12-13T09:30:56;100013.84;;;-0.01;100.00
51928;BME280;37953;52.806;18.270;2022-12-13T09:33:23;100011.34;;;0.01;100.00
51928;BME280;37953;52.806;18.270;2022-12-13T09:35:50;100014.75;;;0.01;100.00
51928;BME280;37953;52.806;18.270;2022-12-13T09:38:16;100011.38;;;0.02;100.00
51928;BME280;37953;52.806;18.270;2022-12-13T09:40:44;100017.41;;;0.04;100.00
51928;BME280;37953;52.806;18.270;2022-12-13T09:43:18;100017.41;;;0.04;100.00
51928;BME280;37953;52.806;18.270;2022-12-13T09:45:46;100018.31;;;0.05;100.00
51928;BME280;37953;52.806;18.270;2022-12-13T09:48:17;100019.25;;;0.07;100.00
51928;BME280;37953;52.806;18.270;2022-12-13T09:50:45;100018.41;;;0.08;100.00
51928;BME280;37953;52.806;18.270;2022-12-13T09:53:14;100012.53;;;0.10;100.00
51928;BME280;37953;52.806;18.270;2022-12-13T09:55:49;100021.97;;;0.11;100.00
51928;BME280;37953;52.806;18.270;2022-12-13T09:58:20;100018.59;;;0.12;100.00
51928;BME280;37953;52.806;18.270;2022-12-13T10:00:53;100020.34;;;0.13;100.00
51928;BME280;37953;52.806;18.270;2022-12-13T10:03:21;100023.75;;;0.14;100.00
51928;BME280;37953;52.806;18.270;2022-12-13T10:05:57;100023.84;;;0.17;100.00
51928;BME280;37953;52.806;18.270;2022-12-13T10:08:51;100035.00;;;0.19;100.00
51928;BME280;37953;52.806;18.270;2022-12-13T10:11:18;100022.22;;;0.19;100.00
51928;BME280;37953;52.806;18.270;2022-12-13T10:14:11;100020.66;;;0.23;100.00
51928;BME280;37953;52.806;18.270;2022-12-13T10:16:50;100030.03;;;0.22;100.00
51928;BME280;37953;52.806;18.270;2022-12-13T10:19:37;100030.09;;;0.24;100.00
51928;BME280;37953;52.806;18.270;2022-12-13T10:22:12;100029.19;;;0.23;100.00
51928;BME280;37953;52.806;18.270;2022-12-13T10:24:48;100024.22;;;0.26;100.00
51928;BME280;37953;52.806;18.270;2022-12-13T10:27:18;100023.38;;;0.27;100.00
51928;BME280;37953;52.806;18.270;2022-12-13T10:33:02;100030.41;;;0.33;100.00
51928;BME280;37953;52.806;18.270;2022-12-13T10:35:30;100032.97;;;0.33;100.00
51928;BME280;37953;52.806;18.270;2022-12-13T10:38:02;100035.53;;;0.33;100.00
51928;BME280;37953;52.806;18.270;2022-12-13T10:40:47;100037.25;;;0.34;100.00
51928;BME280;37953;52.806;18.270;2022-12-13T10:43:19;100041.56;;;0.35;100.00
51928;BME280;37953;52.806;18.270;2022-12-13T10:46:01;100039.00;;;0.35;100.00
51928;BME280;37953;52.806;18.270;2022-12-13T10:48:46;100045.84;;;0.36;100.00
51928;BME280;37953;52.806;18.270;2022-12-13T10:51:16;100047.47;;;0.34;100.00
51928;BME280;37953;52.806;18.270;2022-12-13T10:53:50;100044.06;;;0.33;100.00
51928;BME280;37953;52.806;18.270;2022-12-13T10:56:19;100033.91;;;0.35;100.00
51928;BME280;37953;52.806;18.270;2022-12-13T10:58:51;100039.78;;;0.32;100.00
51928;BME280;37953;52.806;18.270;2022-12-13T11:03:58;100038.94;;;0.33;100.00
51928;BME280;37953;52.806;18.270;2022-12-13T11:06:25;100039.94;;;0.37;100.00
51928;BME280;37953;52.806;18.270;2022-12-13T11:08:52;100043.19;;;0.33;100.00
51928;BME280;37953;52.806;18.270;2022-12-13T11:11:26;100050.84;;;0.33;100.00
51928;BME280;37953;52.806;18.270;2022-12-13T11:13:56;100036.22;;;0.29;100.00
51928;BME280;37953;52.806;18.270;2022-12-13T11:16:34;100042.34;;;0.34;100.00
51928;BME280;37953;52.806;18.270;2022-12-13T11:19:07;100030.41;;;0.33;100.00
51928;BME280;37953;52.806;18.270;2022-12-13T11:21:46;100037.25;;;0.34;100.00
51928;BME280;37953;52.806;18.270;2022-12-13T11:24:29;100036.53;;;0.36;100.00
51928;BME280;37953;52.806;18.270;2022-12-13T11:26:58;100036.53;;;0.36;100.00
51928;BME280;37953;52.806;18.270;2022-12-13T11:32:37;100039.09;;;0.38;100.00
51928;BME280;37953;52.806;18.270;2022-12-13T11:35:28;100037.44;;;0.38;100.00
51928;BME280;37953;52.806;18.270;2022-12-13T11:41:11;100043.41;;;0.39;100.00
51928;BME280;37953;52.806;18.270;2022-12-13T11:43:54;100046.13;;;0.44;100.00
51928;BME280;37953;52.806;18.270;2022-12-13T11:46:41;100055.66;;;0.48;100.00
51928;BME280;37953;52.806;18.270;2022-12-13T11:49:16;100050.63;;;0.49;100.00
51928;BME280;37953;52.806;18.270;2022-12-13T11:51:51;100055.81;;;0.52;100.00
51928;BME280;37953;52.806;18.270;2022-12-13T11:56:51;100053.19;;;0.51;100.00
51928;BME280;37953;52.806;18.270;2022-12-13T12:02:01;100055.75;;;0.51;100.00
51928;BME280;37953;52.806;18.270;2022-12-13T12:05:01;100059.22;;;0.51;100.00
51928;BME280;37953;52.806;18.270;2022-12-13T12:07:49;100054.13;;;0.53;100.00
51928;BME280;37953;52.806;18.270;2022-12-13T12:10:33;100052.41;;;0.52;100.00
51928;BME280;37953;52.806;18.270;2022-12-13T12:13:15;100055.03;;;0.53;100.00
51928;BME280;37953;52.806;18.270;2022-12-13T12:16:05;100056.75;;;0.54;100.00
51928;BME280;37953;52.806;18.270;2022-12-13T12:18:34;100054.19;;;0.54;100.00
51928;BME280;37953;52.806;18.270;2022-12-13T12:26:44;100056.81;;;0.56;100.00
51928;BME280;37953;52.806;18.270;2022-12-13T12:32:18;100059.47;;;0.59;100.00
51928;BME280;37953;52.806;18.270;2022-12-13T12:35:10;100060.28;;;0.58;100.00
51928;BME280;37953;52.806;18.270;2022-12-13T12:49:19;100073.06;;;0.58;100.00
51928;BME280;37953;52.806;18.270;2022-12-13T12:52:43;100079.75;;;0.54;100.00
51928;BME280;37953;52.806;18.270;2022-12-13T12:57:25;100092.28;;;0.48;100.00
51928;BME280;37953;52.806;18.270;2022-12-13T13:00:13;100093.94;;;0.46;100.00
51928;BME280;37953;52.806;18.270;2022-12-13T13:02:43;100093.91;;;0.45;100.00
51928;BME280;37953;52.806;18.270;2022-12-13T13:05:53;100096.47;;;0.46;100.00
51928;BME280;37953;52.806;18.270;2022-12-13T13:08:23;100099.69;;;0.40;100.00
51928;BME280;37953;52.806;18.270;2022-12-13T13:10:51;100102.13;;;0.37;100.00
51928;BME280;37953;52.806;18.270;2022-12-13T13:16:04;100098.53;;;0.32;100.00
51928;BME280;37953;52.806;18.270;2022-12-13T13:18:49;100106.19;;;0.32;100.00
51928;BME280;37953;52.806;18.270;2022-12-13T13:24:17;100107.06;;;0.33;100.00
51928;BME280;37953;52.806;18.270;2022-12-13T13:26:47;100109.50;;;0.30;100.00
51928;BME280;37953;52.806;18.270;2022-12-13T13:29:33;100111.31;;;0.32;100.00
51928;BME280;37953;52.806;18.270;2022-12-13T13:34:48;100113.78;;;0.31;100.00
51928;BME280;37953;52.806;18.270;2022-12-13T13:54:01;100134.34;;;0.34;100.00
51928;BME280;37953;52.806;18.270;2022-12-13T14:25:54;100143.75;;;0.35;100.00
51928;BME280;37953;52.806;18.270;2022-12-13T14:30:54;100151.25;;;0.30;100.00
51928;BME280;37953;52.806;18.270;2022-12-13T14:33:26;100152.97;;;0.31;100.00
51928;BME280;37953;52.806;18.270;2022-12-13T14:35:58;100154.69;;;0.31;100.00
51928;BME280;37953;52.806;18.270;2022-12-13T14:38:27;100152.06;;;0.29;100.00
51928;BME280;37953;52.806;18.270;2022-12-13T14:40:59;100147.84;;;0.30;100.00
51928;BME280;37953;52.806;18.270;2022-12-13T14:43:30;100145.28;;;0.30;100.00
51928;BME280;37953;52.806;18.270;2022-12-13T14:46:00;100145.28;;;0.30;100.00
51928;BME280;37953;52.806;18.270;2022-12-13T14:48:34;100152.06;;;0.29;100.00
51928;BME280;37953;52.806;18.270;2022-12-13T14:51:01;100151.13;;;0.27;100.00
51928;BME280;37953;52.806;18.270;2022-12-13T14:53:33;100159.69;;;0.28;100.00
51928;BME280;37953;52.806;18.270;2022-12-13T14:56:08;100153.69;;;0.27;100.00
51928;BME280;37953;52.806;18.270;2022-12-13T14:58:35;100160.41;;;0.25;100.00
51928;BME280;37953;52.806;18.270;2022-12-13T15:01:21;100165.41;;;0.22;100.00
51928;BME280;37953;52.806;18.270;2022-12-13T15:03:51;100162.72;;;0.19;100.00
51928;BME280;37953;52.806;18.270;2022-12-13T15:06:19;100171.91;;;0.14;100.00
51928;BME280;37953;52.806;18.270;2022-12-13T15:08:52;100164.91;;;0.10;100.00